createdAt,value
2023-01-19T00:02:50.964Z,239.70
2023-01-19T00:05:04.211Z,239.00
2023-01-19T00:07:16.844Z,249.00
2023-01-19T00:09:33.591Z,227.60
2023-01-19T00:11:45.551Z,229.90
2023-01-19T00:13:58.074Z,221.60
2023-01-19T00:16:10.108Z,227.00
2023-01-19T00:18:22.042Z,246.30
2023-01-19T00:20:35.648Z,256.50
2023-01-19T00:22:51.024Z,243.60
2023-01-19T00:25:03.758Z,261.50
2023-01-19T00:27:15.804Z,271.80
2023-01-19T00:29:31.001Z,248.80
2023-01-19T00:31:43.472Z,210.80
2023-01-19T00:33:55.756Z,211.20
2023-01-19T00:36:08.447Z,222.10
2023-01-19T00:38:20.132Z,215.60
2023-01-19T00:40:32.333Z,222.90
2023-01-19T00:42:44.763Z,210.60
2023-01-19T00:44:57.401Z,205.80
2023-01-19T00:47:09.954Z,200.10
2023-01-19T00:49:21.946Z,193.50
2023-01-19T00:51:33.741Z,202.60
2023-01-19T00:53:45.324Z,195.90
2023-01-19T00:55:57.213Z,203.20
2023-01-19T00:58:08.923Z,200.50
2023-01-19T01:00:22.249Z,202.40
2023-01-19T01:02:34.398Z,209.30
2023-01-19T01:04:46.430Z,194.00
2023-01-19T01:06:58.419Z,220.30
2023-01-19T01:09:13.161Z,202.00
2023-01-19T01:11:25.375Z,203.50
2023-01-19T01:13:37.064Z,210.70
2023-01-19T01:15:51.311Z,199.30
2023-01-19T01:18:03.104Z,208.70
2023-01-19T01:20:18.022Z,214.90
2023-01-19T01:22:29.853Z,219.60
2023-01-19T01:24:41.440Z,234.30
2023-01-19T01:26:53.132Z,231.90
2023-01-19T01:29:06.657Z,227.40
2023-01-19T01:31:18.870Z,197.60
2023-01-19T01:33:39.996Z,202.50
2023-01-19T01:35:54.011Z,191.60
2023-01-19T01:38:06.004Z,192.30
2023-01-19T01:40:19.327Z,189.80
2023-01-19T01:42:32.458Z,200.10
2023-01-19T01:44:52.078Z,196.80
2023-01-19T01:47:04.938Z,185.70
2023-01-19T01:49:17.956Z,189.30
2023-01-19T01:51:39.168Z,197.70
2023-01-19T01:54:01.403Z,207.50
2023-01-19T01:56:17.823Z,198.80
2023-01-19T01:58:31.866Z,199.70
2023-01-19T02:01:03.062Z,204.80
2023-01-19T02:03:15.944Z,208.60
2023-01-19T02:05:33.733Z,203.90
2023-01-19T02:08:26.386Z,202.70
2023-01-19T02:10:58.862Z,212.20
2023-01-19T02:13:23.261Z,190.70
2023-01-19T02:15:35.339Z,196.20
2023-01-19T02:17:48.150Z,194.90
2023-01-19T02:20:00.048Z,200.40
2023-01-19T02:22:24.840Z,203.50
2023-01-19T02:24:37.968Z,212.80
2023-01-19T02:26:51.001Z,199.20
2023-01-19T02:29:07.591Z,211.10
2023-01-19T02:31:19.988Z,210.00
2023-01-19T02:33:32.187Z,211.00
2023-01-19T02:35:46.026Z,197.80
2023-01-19T02:37:58.856Z,187.50
2023-01-19T02:40:14.102Z,184.90
2023-01-19T02:42:31.122Z,184.90
2023-01-19T02:44:47.428Z,176.00
2023-01-19T02:46:59.618Z,165.80
2023-01-19T02:49:11.829Z,160.50
2023-01-19T02:51:24.939Z,180.40
2023-01-19T02:54:04.995Z,180.10
2023-01-19T02:56:36.340Z,161.90
2023-01-19T02:59:01.543Z,166.70
2023-01-19T03:01:26.857Z,145.90
2023-01-19T03:04:00.040Z,157.10
2023-01-19T03:06:28.119Z,155.70
2023-01-19T03:09:15.746Z,157.60
2023-01-19T03:11:35.301Z,155.80
2023-01-19T03:14:00.979Z,142.30
2023-01-19T03:16:22.833Z,145.90
2023-01-19T03:18:37.310Z,142.70
2023-01-19T03:20:53.545Z,149.40
2023-01-19T03:23:08.879Z,152.80
2023-01-19T03:25:23.247Z,146.50
2023-01-19T03:27:41.014Z,153.30
2023-01-19T03:30:19.882Z,153.50
2023-01-19T03:32:37.427Z,147.00
2023-01-19T03:34:51.664Z,155.40
2023-01-19T03:37:05.491Z,144.00
2023-01-19T03:39:23.224Z,159.20
2023-01-19T03:41:38.461Z,160.60
2023-01-19T03:43:52.638Z,188.30
2023-01-19T03:46:06.115Z,193.60
2023-01-19T03:48:18.264Z,182.70
2023-01-19T03:50:31.082Z,184.10
2023-01-19T03:52:43.073Z,165.90
2023-01-19T03:54:54.968Z,165.50
2023-01-19T03:57:07.372Z,155.60
2023-01-19T03:59:20.187Z,156.40
2023-01-19T04:01:33.210Z,148.30
2023-01-19T04:03:47.456Z,150.80
2023-01-19T04:05:59.546Z,148.10
2023-01-19T04:08:12.159Z,149.50
2023-01-19T04:10:24.463Z,155.80
2023-01-19T04:12:36.455Z,159.10
2023-01-19T04:14:48.038Z,160.30
2023-01-19T04:17:00.343Z,156.70
2023-01-19T04:19:12.540Z,155.30
2023-01-19T04:21:24.638Z,151.20
2023-01-19T04:23:37.041Z,159.10
2023-01-19T04:25:49.342Z,145.60
2023-01-19T04:28:01.341Z,151.60
2023-01-19T04:30:13.561Z,154.40
2023-01-19T04:32:25.227Z,153.60
2023-01-19T04:34:36.767Z,139.20
2023-01-19T04:36:51.277Z,145.00
2023-01-19T04:39:03.057Z,150.50
2023-01-19T04:41:15.043Z,143.90
2023-01-19T04:43:26.838Z,147.30
2023-01-19T04:45:38.729Z,141.20
2023-01-19T04:47:50.825Z,140.50
2023-01-19T04:50:02.520Z,138.80
2023-01-19T04:52:14.406Z,136.20
2023-01-19T04:54:27.230Z,132.00
2023-01-19T04:56:40.954Z,133.30
2023-01-19T04:58:52.848Z,138.80
2023-01-19T05:01:09.245Z,125.00
2023-01-19T05:03:20.980Z,124.70
2023-01-19T05:05:33.461Z,127.00
2023-01-19T05:07:45.540Z,114.70
2023-01-19T05:09:57.338Z,124.30
2023-01-19T05:12:09.833Z,127.40
2023-01-19T05:14:21.827Z,128.50
2023-01-19T05:16:34.854Z,136.80
2023-01-19T05:18:47.153Z,135.20
2023-01-19T05:20:58.630Z,148.50
2023-01-19T05:23:10.322Z,140.00
2023-01-19T05:25:22.033Z,123.20
2023-01-19T05:27:33.899Z,129.30
2023-01-19T05:29:45.587Z,130.40
2023-01-19T05:31:58.322Z,129.50
2023-01-19T05:34:12.443Z,123.60
2023-01-19T05:36:24.540Z,127.40
2023-01-19T05:38:36.534Z,114.90
2023-01-19T05:40:48.937Z,130.40
2023-01-19T05:43:05.204Z,126.00
2023-01-19T05:45:17.535Z,119.90
2023-01-19T05:47:30.156Z,129.40
2023-01-19T05:49:42.141Z,128.40
2023-01-19T05:51:53.732Z,115.70
2023-01-19T05:54:06.752Z,121.40
2023-01-19T05:56:18.634Z,135.10
2023-01-19T05:58:31.567Z,183.90
2023-01-19T06:00:43.242Z,210.40
2023-01-19T06:02:55.514Z,192.10
2023-01-19T06:05:08.360Z,199.40
2023-01-19T06:07:20.041Z,233.30
2023-01-19T06:09:32.737Z,201.80
2023-01-19T06:11:46.087Z,179.10
2023-01-19T06:13:57.869Z,171.70
2023-01-19T06:16:11.033Z,156.40
2023-01-19T06:18:22.985Z,139.40
2023-01-19T06:20:35.902Z,140.10
2023-01-19T06:22:48.203Z,122.50
2023-01-19T06:25:00.549Z,110.60
2023-01-19T06:27:13.948Z,115.60
2023-01-19T06:29:26.730Z,120.20
2023-01-19T06:31:40.701Z,119.80
2023-01-19T06:33:52.547Z,118.10
2023-01-19T06:36:06.743Z,112.80
2023-01-19T06:38:20.374Z,115.10
2023-01-19T06:40:32.659Z,116.90
2023-01-19T06:42:44.454Z,121.00
2023-01-19T06:44:57.203Z,108.50
2023-01-19T06:47:15.606Z,122.80
2023-01-19T06:49:28.327Z,117.90
2023-01-19T06:51:40.221Z,122.20
2023-01-19T06:53:51.947Z,137.10
2023-01-19T06:56:06.457Z,145.00
2023-01-19T06:58:19.581Z,158.80
2023-01-19T07:00:31.874Z,162.00
2023-01-19T07:02:44.813Z,198.20
2023-01-19T07:04:56.984Z,177.10
2023-01-19T07:07:08.988Z,162.30
2023-01-19T07:09:21.499Z,160.50
2023-01-19T07:11:33.898Z,149.20
2023-01-19T07:13:51.531Z,133.60
2023-01-19T07:16:07.366Z,119.30
2023-01-19T07:18:20.539Z,110.80
2023-01-19T07:20:33.447Z,134.80
2023-01-19T07:22:46.873Z,121.30
2023-01-19T07:24:59.282Z,99.50
2023-01-19T07:27:13.412Z,104.60
2023-01-19T07:29:25.941Z,95.60
2023-01-19T07:31:38.241Z,96.70
2023-01-19T07:33:50.233Z,99.50
2023-01-19T07:36:02.326Z,100.40
2023-01-19T07:38:15.959Z,102.80
2023-01-19T07:40:28.434Z,120.10
2023-01-19T07:42:40.256Z,102.00
2023-01-19T07:44:53.591Z,93.20
2023-01-19T07:47:07.731Z,99.10
2023-01-19T07:49:20.848Z,85.30
2023-01-19T07:51:33.047Z,82.40
2023-01-19T07:53:46.246Z,83.70
2023-01-19T07:55:58.776Z,93.10
2023-01-19T07:58:10.466Z,87.70
2023-01-19T08:00:25.472Z,92.00
2023-01-19T08:02:38.140Z,84.40
2023-01-19T08:04:50.277Z,80.00
2023-01-19T08:07:04.081Z,79.40
2023-01-19T08:09:16.184Z,146.90
2023-01-19T08:11:28.064Z,217.60
2023-01-19T08:13:40.167Z,275.70
2023-01-19T08:15:54.006Z,226.00
2023-01-19T08:18:07.017Z,154.60
2023-01-19T08:20:19.086Z,187.70
2023-01-19T08:22:31.456Z,221.50
2023-01-19T08:24:43.198Z,309.90
2023-01-19T08:27:02.777Z,292.10
2023-01-19T08:29:16.858Z,213.20
2023-01-19T08:31:30.743Z,174.10
2023-01-19T08:33:44.345Z,118.30
2023-01-19T08:35:55.982Z,158.30
2023-01-19T08:38:09.415Z,165.50
2023-01-19T08:40:21.181Z,139.20
2023-01-19T08:42:33.513Z,164.10
2023-01-19T08:44:57.399Z,188.70
2023-01-19T08:47:09.889Z,184.00
2023-01-19T08:49:22.190Z,164.20
2023-01-19T08:51:34.894Z,125.30
2023-01-19T08:53:47.101Z,156.70
2023-01-19T08:56:02.512Z,133.50
2023-01-19T08:58:14.246Z,154.40
2023-01-19T09:00:27.234Z,152.40
2023-01-19T09:02:38.817Z,165.80
2023-01-19T09:04:50.792Z,182.70
2023-01-19T09:07:02.398Z,156.40
2023-01-19T09:09:14.376Z,130.30
2023-01-19T09:11:27.703Z,104.00
2023-01-19T09:13:41.431Z,109.30
2023-01-19T09:15:53.964Z,99.20
2023-01-19T09:18:08.019Z,94.00
2023-01-19T09:20:20.030Z,112.00
2023-01-19T09:22:32.977Z,116.60
2023-01-19T09:24:44.863Z,130.20
2023-01-19T09:26:57.063Z,128.50
2023-01-19T09:29:09.074Z,147.30
2023-01-19T09:31:21.678Z,104.90
2023-01-19T09:33:34.852Z,103.90
2023-01-19T09:35:48.526Z,112.80
2023-01-19T09:38:00.974Z,122.40
2023-01-19T09:40:14.191Z,117.30
2023-01-19T09:42:32.127Z,96.30
2023-01-19T09:44:47.636Z,97.80
2023-01-19T09:47:03.957Z,69.70
2023-01-19T09:49:31.585Z,73.30
2023-01-19T09:51:50.700Z,82.30
2023-01-19T09:54:22.644Z,76.50
2023-01-19T09:56:34.587Z,79.60
2023-01-19T09:58:49.096Z,101.00
2023-01-19T10:01:22.802Z,95.30
2023-01-19T10:03:41.448Z,160.60
2023-01-19T10:06:03.898Z,112.60
2023-01-19T10:08:28.398Z,99.60
2023-01-19T10:10:45.601Z,77.80
2023-01-19T10:13:22.671Z,172.60
2023-01-19T10:16:02.656Z,184.90
2023-01-19T10:18:40.217Z,333.30
2023-01-19T10:21:05.550Z,186.90
2023-01-19T10:23:33.394Z,102.10
2023-01-19T10:25:46.261Z,273.40
2023-01-19T10:28:00.352Z,154.60
2023-01-19T10:30:22.916Z,137.00
2023-01-19T10:32:37.207Z,107.70
2023-01-19T10:34:50.871Z,116.30
2023-01-19T10:37:30.522Z,90.60
2023-01-19T10:39:43.029Z,114.80
2023-01-19T10:41:54.710Z,172.00
2023-01-19T10:44:09.998Z,148.80
2023-01-19T10:46:24.739Z,172.60
2023-01-19T10:48:42.272Z,214.50
2023-01-19T10:51:05.523Z,139.60
2023-01-19T10:53:22.644Z,168.10
2023-01-19T10:55:39.902Z,123.30
2023-01-19T10:57:53.661Z,148.50
2023-01-19T11:00:27.328Z,157.00
2023-01-19T11:02:50.615Z,216.40
2023-01-19T11:05:23.839Z,248.60
2023-01-19T11:07:35.850Z,196.70
2023-01-19T11:09:48.712Z,135.10
2023-01-19T11:12:00.557Z,110.20
2023-01-19T11:14:15.311Z,90.00
2023-01-19T11:16:34.853Z,95.80
2023-01-19T11:18:52.584Z,127.00
2023-01-19T11:21:07.333Z,115.30
2023-01-19T11:23:26.116Z,112.50
2023-01-19T11:25:39.323Z,92.90
2023-01-19T11:28:00.908Z,91.80
2023-01-19T11:30:25.759Z,110.50
2023-01-19T11:32:38.136Z,107.70
2023-01-19T11:34:50.610Z,122.60
2023-01-19T11:37:14.485Z,127.30
2023-01-19T11:39:29.648Z,106.10
2023-01-19T11:41:41.862Z,91.10
2023-01-19T11:44:00.457Z,83.50
2023-01-19T11:46:13.875Z,88.80
2023-01-19T11:48:45.219Z,99.50
2023-01-19T11:50:59.873Z,215.50
2023-01-19T11:53:25.658Z,123.70
2023-01-19T11:55:46.865Z,153.80
2023-01-19T11:57:59.650Z,166.40
2023-01-19T12:00:25.446Z,115.30
2023-01-19T12:02:47.016Z,97.80
2023-01-19T12:05:05.113Z,103.40
2023-01-19T12:07:25.638Z,109.40
2023-01-19T12:09:48.348Z,179.10
2023-01-19T12:12:06.593Z,167.80
2023-01-19T12:14:27.344Z,170.60
2023-01-19T12:16:41.518Z,205.00
2023-01-19T12:19:00.156Z,147.60
2023-01-19T12:24:02.196Z,176.20
2023-01-19T12:26:53.223Z,123.90
2023-01-19T12:29:12.793Z,135.90
2023-01-19T12:31:25.191Z,298.60
2023-01-19T12:33:40.484Z,267.10
2023-01-19T12:36:03.961Z,143.10
2023-01-19T12:38:42.350Z,149.50
2023-01-19T12:43:26.545Z,174.60
2023-01-19T12:45:40.037Z,261.80
2023-01-19T12:47:53.688Z,341.30
2023-01-19T12:50:14.091Z,375.40
2023-01-19T12:52:36.095Z,142.20
2023-01-19T12:55:02.129Z,215.90
2023-01-19T12:57:25.223Z,223.80
2023-01-19T12:59:39.043Z,142.10
2023-01-19T13:02:44.574Z,179.80
2023-01-19T13:05:16.890Z,215.80
2023-01-19T13:07:28.929Z,399.10
2023-01-19T13:09:42.778Z,248.10
2023-01-19T13:12:13.895Z,210.40
2023-01-19T13:14:37.551Z,174.30
2023-01-19T13:16:59.810Z,228.80
2023-01-19T13:19:12.984Z,178.10
2023-01-19T13:21:45.252Z,163.30
2023-01-19T13:24:00.067Z,128.80
2023-01-19T13:26:15.668Z,127.80
2023-01-19T13:28:40.951Z,136.30
2023-01-19T13:31:00.142Z,122.00
2023-01-19T13:33:21.441Z,183.60
2023-01-19T13:35:34.138Z,148.00
2023-01-19T13:37:46.647Z,122.60
2023-01-19T13:39:59.028Z,114.10
2023-01-19T13:42:30.842Z,105.10
2023-01-19T13:44:51.609Z,104.00
2023-01-19T13:47:04.764Z,100.90
2023-01-19T13:49:39.330Z,103.10
2023-01-19T13:52:20.155Z,103.90
2023-01-19T13:54:32.544Z,100.70
2023-01-19T13:56:50.594Z,111.80
2023-01-19T13:59:11.942Z,112.10
2023-01-19T14:01:24.003Z,102.80
2023-01-19T14:03:36.670Z,103.50
2023-01-19T14:05:52.153Z,113.20
2023-01-19T14:08:13.766Z,122.00
2023-01-19T14:10:26.005Z,136.70
2023-01-19T14:12:48.161Z,122.30
2023-01-19T14:19:58.657Z,124.40
2023-01-19T14:22:11.884Z,145.00
2023-01-19T14:24:25.532Z,156.60
2023-01-19T14:26:42.714Z,181.50
2023-01-19T14:28:56.579Z,176.40
2023-01-19T14:31:28.750Z,179.20
2023-01-19T14:33:45.596Z,179.50
2023-01-19T14:36:38.681Z,158.40
2023-01-19T14:38:52.293Z,165.50
2023-01-19T14:41:04.090Z,155.00
2023-01-19T14:43:16.073Z,171.00
2023-01-19T14:45:36.754Z,184.90
2023-01-19T14:48:01.580Z,139.60
2023-01-19T14:50:18.137Z,137.80
2023-01-19T14:52:40.947Z,131.90
2023-01-19T14:54:57.970Z,143.60
2023-01-19T14:57:15.086Z,140.80
2023-01-19T14:59:28.544Z,126.20
2023-01-19T15:01:44.898Z,108.90
2023-01-19T15:03:59.603Z,123.80
2023-01-19T15:06:22.188Z,126.20
2023-01-19T15:08:50.486Z,110.60
2023-01-19T15:11:13.007Z,112.10
2023-01-19T15:13:27.663Z,119.90
2023-01-19T15:15:45.372Z,147.70
2023-01-19T15:18:13.166Z,148.30
2023-01-19T15:20:25.443Z,151.90
2023-01-19T15:22:37.335Z,148.20
2023-01-19T15:24:50.149Z,136.20
2023-01-19T15:27:02.858Z,141.70
2023-01-19T15:29:22.119Z,154.40
2023-01-19T15:31:33.843Z,143.30
2023-01-19T15:33:46.425Z,151.00
2023-01-19T15:35:58.314Z,153.60
2023-01-19T15:38:10.468Z,147.60
2023-01-19T15:40:23.516Z,149.10
2023-01-19T15:42:35.939Z,148.90
2023-01-19T15:44:48.040Z,151.10
2023-01-19T15:46:59.975Z,156.70
2023-01-19T15:49:15.363Z,143.30
2023-01-19T15:51:28.282Z,154.10
2023-01-19T15:53:41.500Z,154.30
2023-01-19T15:55:56.942Z,156.70
2023-01-19T15:58:08.956Z,165.20
2023-01-19T16:00:21.277Z,153.20
2023-01-19T16:02:36.177Z,149.10
2023-01-19T16:04:49.610Z,161.40
2023-01-19T16:07:01.155Z,145.70
2023-01-19T16:09:20.319Z,149.60
2023-01-19T16:11:35.107Z,143.10
2023-01-19T16:13:47.686Z,142.90
2023-01-19T16:16:14.074Z,148.70
2023-01-19T16:18:27.071Z,148.00
2023-01-19T16:20:39.270Z,154.50
2023-01-19T16:22:52.874Z,144.00
2023-01-19T16:25:10.665Z,145.50
2023-01-19T16:27:24.171Z,153.30
2023-01-19T16:29:36.057Z,141.40
2023-01-19T16:31:47.893Z,160.70
2023-01-19T16:34:02.196Z,151.90
2023-01-19T16:36:23.325Z,153.50
2023-01-19T16:38:35.095Z,163.70
2023-01-19T16:40:48.628Z,150.90
2023-01-19T16:43:00.724Z,169.50
2023-01-19T16:45:16.203Z,157.60
2023-01-19T16:47:28.512Z,154.70
2023-01-19T16:49:40.905Z,167.20
2023-01-19T16:51:54.897Z,169.10
2023-01-19T16:54:07.261Z,159.80
2023-01-19T16:56:19.652Z,180.50
2023-01-19T16:58:31.758Z,279.70
2023-01-19T17:00:43.853Z,274.90
2023-01-19T17:02:56.189Z,256.60
2023-01-19T17:05:08.962Z,232.80
2023-01-19T17:07:21.046Z,253.40
2023-01-19T17:09:32.957Z,227.80
2023-01-19T17:11:47.929Z,237.00
2023-01-19T17:14:03.498Z,241.10
2023-01-19T17:16:15.953Z,246.40
2023-01-19T17:18:31.937Z,351.20
2023-01-19T17:20:43.986Z,303.10
2023-01-19T17:22:56.492Z,276.70
2023-01-19T17:25:08.905Z,255.50
2023-01-19T17:27:20.456Z,253.70
2023-01-19T17:29:32.167Z,283.30
2023-01-19T17:31:44.807Z,249.60
2023-01-19T17:33:57.620Z,273.90
2023-01-19T17:36:13.102Z,335.50
2023-01-19T17:38:24.960Z,351.90
2023-01-19T17:40:37.671Z,417.70
2023-01-19T17:42:49.563Z,694.90
2023-01-19T17:45:01.456Z,928.40
2023-01-19T17:47:13.460Z,795.20
2023-01-19T17:49:25.352Z,1023.80
2023-01-19T17:51:37.542Z,877.50
2023-01-19T17:53:51.592Z,813.70
2023-01-19T17:56:05.431Z,920.50
2023-01-19T17:58:17.520Z,830.80
2023-01-19T18:00:30.129Z,965.00
2023-01-19T18:02:45.087Z,775.30
2023-01-19T18:05:00.878Z,580.70
2023-01-19T18:07:12.976Z,759.80
2023-01-19T18:09:24.872Z,845.80
2023-01-19T18:11:36.556Z,974.20
2023-01-19T18:13:50.744Z,1066.60
2023-01-19T18:16:08.791Z,1015.70
2023-01-19T18:18:20.525Z,1078.40
2023-01-19T18:20:32.522Z,778.40
2023-01-19T18:22:44.627Z,546.70
2023-01-19T18:24:57.330Z,443.80
2023-01-19T18:27:09.433Z,336.00
2023-01-19T18:29:21.624Z,294.40
2023-01-19T18:31:33.900Z,256.10
2023-01-19T18:33:47.086Z,238.90
2023-01-19T18:36:00.272Z,236.60
2023-01-19T18:38:14.891Z,234.70
2023-01-19T18:40:29.381Z,240.90
2023-01-19T18:42:44.059Z,262.70
2023-01-19T18:44:57.983Z,251.30
2023-01-19T18:47:09.971Z,254.70
2023-01-19T18:49:21.572Z,250.30
2023-01-19T18:51:33.860Z,288.20
2023-01-19T18:53:45.817Z,306.50
2023-01-19T18:55:59.484Z,312.50
2023-01-19T18:58:11.446Z,325.30
2023-01-19T19:00:24.100Z,350.00
2023-01-19T19:02:37.417Z,340.00
2023-01-19T19:04:50.127Z,290.40
2023-01-19T19:07:02.447Z,259.30
2023-01-19T19:09:14.116Z,229.70
2023-01-19T19:11:27.091Z,229.90
2023-01-19T19:13:39.342Z,242.00
2023-01-19T19:15:52.740Z,236.50
2023-01-19T19:18:05.783Z,243.70
2023-01-19T19:20:18.002Z,252.00
2023-01-19T19:22:30.182Z,264.80
2023-01-19T19:24:41.571Z,263.30
2023-01-19T19:26:54.478Z,270.20
2023-01-19T19:29:06.370Z,327.20
2023-01-19T19:31:21.144Z,376.80
2023-01-19T19:33:33.842Z,407.10
2023-01-19T19:35:45.939Z,438.50
2023-01-19T19:37:58.031Z,420.30
2023-01-19T19:40:13.640Z,440.00
2023-01-19T19:42:29.090Z,315.30
2023-01-19T19:44:40.679Z,351.90
2023-01-19T19:46:53.728Z,405.80
2023-01-19T19:49:05.998Z,396.50
2023-01-19T19:51:25.553Z,391.80
2023-01-19T19:53:40.327Z,377.30
2023-01-19T19:56:01.022Z,274.00
2023-01-19T19:58:13.231Z,275.50
2023-01-19T20:00:27.927Z,244.90
2023-01-19T20:02:40.526Z,229.20
2023-01-19T20:04:53.117Z,207.00
2023-01-19T20:07:05.458Z,205.60
2023-01-19T20:09:18.114Z,192.00
2023-01-19T20:11:31.339Z,190.20
2023-01-19T20:13:44.424Z,185.20
2023-01-19T20:15:56.363Z,206.70
2023-01-19T20:18:08.551Z,206.00
2023-01-19T20:20:25.365Z,242.70
2023-01-19T20:22:41.980Z,241.30
2023-01-19T20:24:58.965Z,252.10
2023-01-19T20:27:15.219Z,279.00
2023-01-19T20:29:32.365Z,291.70
2023-01-19T20:31:52.112Z,278.80
2023-01-19T20:34:33.044Z,299.00
2023-01-19T20:36:49.908Z,336.20
2023-01-19T20:39:12.224Z,336.10
2023-01-19T20:41:29.584Z,322.70
2023-01-19T20:43:45.958Z,306.80
2023-01-19T20:46:00.689Z,311.70
2023-01-19T20:48:14.905Z,313.40
2023-01-19T20:50:31.956Z,276.50
2023-01-19T20:52:45.957Z,265.60
2023-01-19T20:55:00.178Z,258.70
2023-01-19T20:57:16.139Z,259.90
2023-01-19T20:59:32.871Z,280.20
2023-01-19T21:01:47.966Z,287.30
2023-01-19T21:04:04.128Z,299.50
2023-01-19T21:06:23.976Z,291.40
2023-01-19T21:08:41.059Z,317.80
2023-01-19T21:10:58.260Z,289.90
2023-01-19T21:13:15.400Z,292.70
2023-01-19T21:15:30.479Z,336.50
2023-01-19T21:17:47.329Z,268.50
2023-01-19T21:20:19.742Z,256.70
2023-01-19T21:23:11.496Z,247.10
2023-01-19T21:25:28.038Z,394.90
2023-01-19T21:27:45.182Z,358.30
2023-01-19T21:30:03.520Z,359.10
2023-01-19T21:32:18.033Z,348.00
2023-01-19T21:34:35.268Z,306.40
2023-01-19T21:36:50.226Z,273.70
2023-01-19T21:39:07.315Z,259.20
2023-01-19T21:41:24.691Z,232.90
2023-01-19T21:43:42.960Z,261.20
2023-01-19T21:46:11.211Z,247.80
2023-01-19T21:50:43.516Z,233.40
2023-01-19T21:53:00.547Z,233.50
2023-01-19T21:55:14.647Z,204.30
2023-01-19T21:57:26.848Z,223.10
2023-01-19T21:59:41.023Z,225.80
2023-01-19T22:01:52.908Z,212.80
2023-01-19T22:04:06.416Z,221.80
2023-01-19T22:06:18.410Z,246.40
2023-01-19T22:08:30.416Z,265.20
2023-01-19T22:10:42.092Z,292.90
2023-01-19T22:12:53.742Z,334.50
2023-01-19T22:15:06.800Z,290.10
2023-01-19T22:17:18.694Z,264.90
2023-01-19T22:19:30.791Z,239.60
2023-01-19T22:21:42.580Z,229.50
2023-01-19T22:23:56.697Z,218.80
2023-01-19T22:26:10.747Z,187.10
2023-01-19T22:28:22.791Z,191.90
2023-01-19T22:30:35.101Z,185.10
2023-01-19T22:32:47.749Z,187.70
2023-01-19T22:35:00.089Z,197.50
2023-01-19T22:37:13.924Z,193.80
2023-01-19T22:39:26.113Z,188.20
2023-01-19T22:41:45.316Z,197.30
2023-01-19T22:44:05.462Z,184.20
2023-01-19T22:46:20.669Z,197.20
2023-01-19T22:48:32.625Z,216.00
2023-01-19T22:50:46.415Z,223.80
2023-01-19T22:52:59.181Z,217.50
2023-01-19T22:55:11.731Z,215.80
2023-01-19T22:57:25.008Z,204.00
2023-01-19T22:59:36.900Z,176.40
2023-01-19T23:01:49.687Z,181.60
2023-01-19T23:04:04.312Z,182.60
2023-01-19T23:06:22.005Z,186.20
2023-01-19T23:08:34.571Z,183.00
2023-01-19T23:10:46.805Z,192.40
2023-01-19T23:12:58.323Z,195.40
2023-01-19T23:15:10.736Z,199.80
2023-01-19T23:17:22.516Z,208.10
2023-01-19T23:19:34.477Z,206.40
2023-01-19T23:21:46.587Z,206.20
2023-01-19T23:24:01.363Z,217.70
2023-01-19T23:26:16.400Z,204.10
2023-01-19T23:28:28.293Z,199.30
2023-01-19T23:30:40.469Z,217.20
2023-01-19T23:32:52.487Z,205.00
2023-01-19T23:35:04.490Z,218.70
2023-01-19T23:37:16.583Z,222.80
2023-01-19T23:39:28.574Z,231.00
2023-01-19T23:41:40.263Z,229.40
2023-01-19T23:43:52.769Z,230.10
2023-01-19T23:46:05.964Z,247.20
2023-01-19T23:48:17.986Z,270.10
2023-01-19T23:50:30.195Z,232.90
2023-01-19T23:52:42.490Z,239.70
2023-01-19T23:54:54.075Z,244.40
2023-01-19T23:57:06.479Z,238.10
2023-01-19T23:59:18.267Z,250.20
